createdAt,value
2022-09-30T00:01:32.725Z,4.00
2022-09-30T00:04:01.365Z,3.43
2022-09-30T00:06:30.545Z,4.10
2022-09-30T00:08:59.246Z,3.87
2022-09-30T00:11:28.596Z,3.83
2022-09-30T00:13:57.596Z,3.80
2022-09-30T00:16:28.160Z,3.53
2022-09-30T00:18:57.250Z,3.77
2022-09-30T00:21:26.108Z,4.00
2022-09-30T00:23:54.356Z,3.83
2022-09-30T00:26:23.967Z,3.57
2022-09-30T00:28:52.405Z,4.10
2022-09-30T00:31:21.444Z,3.67
2022-09-30T00:34:06.727Z,3.77
2022-09-30T00:36:35.436Z,3.67
2022-09-30T00:39:03.698Z,3.57
2022-09-30T00:41:31.933Z,3.70
2022-09-30T00:44:00.316Z,3.70
2022-09-30T00:46:31.867Z,4.80
2022-09-30T00:49:03.579Z,3.70
2022-09-30T00:51:33.691Z,3.97
2022-09-30T00:54:03.525Z,3.60
2022-09-30T00:56:33.480Z,3.67
2022-09-30T00:59:03.985Z,3.43
2022-09-30T01:01:32.610Z,3.70
2022-09-30T01:04:03.683Z,3.80
2022-09-30T01:06:31.907Z,3.77
2022-09-30T01:09:00.420Z,3.87
2022-09-30T01:11:29.087Z,3.33
2022-09-30T01:14:00.445Z,3.27
2022-09-30T01:16:49.304Z,3.73
2022-09-30T01:19:25.096Z,3.70
2022-09-30T01:22:08.192Z,3.83
2022-09-30T01:24:54.058Z,3.37
2022-09-30T01:27:31.686Z,3.13
2022-09-30T01:30:17.825Z,3.07
2022-09-30T01:32:52.032Z,3.87
2022-09-30T01:35:25.356Z,3.63
2022-09-30T01:37:59.104Z,3.13
2022-09-30T01:40:30.950Z,3.40
2022-09-30T01:43:03.685Z,3.43
2022-09-30T01:45:35.655Z,3.63
2022-09-30T01:48:07.513Z,3.37
2022-09-30T01:50:40.890Z,3.30
2022-09-30T01:53:12.380Z,3.60
2022-09-30T01:55:43.167Z,3.90
2022-09-30T01:58:13.243Z,3.43
2022-09-30T02:00:43.477Z,3.30
2022-09-30T02:03:14.470Z,3.57
2022-09-30T02:05:44.549Z,3.47
2022-09-30T02:08:17.400Z,3.23
2022-09-30T02:10:47.796Z,3.60
2022-09-30T02:13:18.493Z,3.70
2022-09-30T02:15:49.329Z,3.63
2022-09-30T02:18:19.997Z,3.70
2022-09-30T02:20:50.945Z,4.10
2022-09-30T02:23:21.552Z,3.73
2022-09-30T02:25:54.195Z,3.80
2022-09-30T02:28:27.008Z,4.10
2022-09-30T02:30:57.440Z,3.30
2022-09-30T02:33:29.818Z,3.87
2022-09-30T02:36:00.320Z,3.57
2022-09-30T02:38:31.376Z,4.00
2022-09-30T02:41:04.738Z,3.73
2022-09-30T02:43:33.099Z,4.00
2022-09-30T02:46:05.173Z,3.27
2022-09-30T02:48:39.601Z,3.60
2022-09-30T02:51:12.971Z,3.50
2022-09-30T02:53:44.930Z,3.77
2022-09-30T02:56:21.266Z,4.17
2022-09-30T02:58:49.811Z,3.60
2022-09-30T03:01:18.892Z,4.30
2022-09-30T03:03:51.524Z,4.23
2022-09-30T03:06:20.344Z,3.80
2022-09-30T03:08:48.856Z,4.13
2022-09-30T03:11:18.721Z,4.53
2022-09-30T03:14:01.737Z,4.33
2022-09-30T03:16:38.873Z,4.67
2022-09-30T03:19:15.279Z,4.50
2022-09-30T03:21:53.281Z,4.60
2022-09-30T03:24:28.735Z,5.30
2022-09-30T03:27:01.800Z,4.57
2022-09-30T03:29:35.086Z,4.60
2022-09-30T03:32:09.029Z,3.90
2022-09-30T03:34:40.454Z,4.50
2022-09-30T03:37:15.689Z,5.47
2022-09-30T03:39:51.064Z,4.87
2022-09-30T03:42:23.201Z,5.73
2022-09-30T03:44:58.024Z,4.80
2022-09-30T03:47:27.952Z,5.20
2022-09-30T03:49:59.955Z,6.33
2022-09-30T03:52:28.868Z,5.77
2022-09-30T03:54:59.277Z,6.20
2022-09-30T03:57:29.344Z,6.00
2022-09-30T03:59:57.855Z,6.90
2022-09-30T04:02:26.486Z,6.83
2022-09-30T04:04:54.971Z,7.10
2022-09-30T04:07:24.483Z,7.20
2022-09-30T04:09:52.912Z,8.43
2022-09-30T04:12:21.272Z,7.13
2022-09-30T04:14:49.400Z,7.20
2022-09-30T04:17:17.769Z,7.20
2022-09-30T04:19:46.037Z,7.77
2022-09-30T04:22:14.238Z,7.30
2022-09-30T04:24:44.258Z,6.47
2022-09-30T04:27:12.491Z,7.40
2022-09-30T04:29:40.643Z,7.10
2022-09-30T04:32:08.832Z,6.70
2022-09-30T04:34:37.057Z,6.90
2022-09-30T04:37:10.620Z,7.47
2022-09-30T04:39:39.155Z,8.90
2022-09-30T04:42:08.616Z,8.00
2022-09-30T04:44:37.584Z,8.63
2022-09-30T04:47:06.657Z,8.60
2022-09-30T04:49:34.826Z,8.57
2022-09-30T04:52:03.173Z,8.00
2022-09-30T04:54:31.461Z,8.70
2022-09-30T04:56:59.649Z,9.30
2022-09-30T04:59:29.307Z,10.83
2022-09-30T05:01:57.508Z,10.10
2022-09-30T05:04:26.127Z,9.60
2022-09-30T05:06:54.300Z,11.47
2022-09-30T05:09:22.664Z,12.53
2022-09-30T05:11:51.040Z,10.60
2022-09-30T05:14:19.198Z,11.50
2022-09-30T05:16:48.708Z,10.33
2022-09-30T05:19:17.176Z,10.27
2022-09-30T05:21:46.731Z,10.63
2022-09-30T05:24:14.868Z,10.70
2022-09-30T05:26:43.035Z,11.73
2022-09-30T05:29:11.671Z,11.20
2022-09-30T05:31:39.943Z,12.00
2022-09-30T05:34:09.582Z,11.23
2022-09-30T05:36:37.851Z,10.60
2022-09-30T05:39:06.037Z,11.80
2022-09-30T05:41:34.168Z,11.77
2022-09-30T05:44:02.715Z,10.47
2022-09-30T05:46:30.965Z,11.10
2022-09-30T05:48:59.201Z,11.83
2022-09-30T05:51:28.891Z,11.20
2022-09-30T05:53:57.021Z,11.63
2022-09-30T05:56:25.197Z,11.80
2022-09-30T05:58:53.358Z,11.50
2022-09-30T06:01:21.513Z,11.20
2022-09-30T06:03:49.696Z,10.20
2022-09-30T06:06:19.029Z,9.90
2022-09-30T06:08:49.244Z,11.10
2022-09-30T06:11:18.636Z,10.80
2022-09-30T06:13:48.727Z,11.33
2022-09-30T06:16:18.304Z,11.30
2022-09-30T06:18:46.766Z,11.77
2022-09-30T06:21:16.830Z,12.80
2022-09-30T06:23:45.228Z,13.37
2022-09-30T06:26:15.256Z,12.63
2022-09-30T06:28:44.628Z,11.10
2022-09-30T06:31:12.856Z,9.90
2022-09-30T06:33:42.223Z,8.37
2022-09-30T06:36:10.474Z,8.10
2022-09-30T06:38:39.733Z,7.60
2022-09-30T06:41:08.406Z,7.03
2022-09-30T06:43:45.954Z,6.13
2022-09-30T06:46:23.194Z,6.13
2022-09-30T06:49:07.253Z,6.37
2022-09-30T06:51:39.114Z,5.50
2022-09-30T06:54:07.861Z,5.47
2022-09-30T06:56:36.006Z,5.33
2022-09-30T06:59:05.535Z,5.10
2022-09-30T07:01:33.714Z,5.30
2022-09-30T07:04:07.894Z,5.07
2022-09-30T07:06:36.025Z,4.97
2022-09-30T07:09:04.232Z,5.50
2022-09-30T07:11:32.421Z,4.73
2022-09-30T07:14:00.557Z,5.10
2022-09-30T07:16:31.595Z,4.93
2022-09-30T07:19:00.207Z,5.00
2022-09-30T07:21:28.357Z,6.07
2022-09-30T07:23:58.788Z,5.00
2022-09-30T07:26:28.006Z,5.17
2022-09-30T07:28:56.241Z,5.77
2022-09-30T07:31:33.043Z,5.60
2022-09-30T07:34:04.138Z,7.00
2022-09-30T07:36:33.987Z,5.60
2022-09-30T07:39:06.145Z,5.60
2022-09-30T07:41:36.445Z,5.90
2022-09-30T07:44:06.382Z,5.47
2022-09-30T07:46:36.165Z,5.33
2022-09-30T07:49:08.675Z,5.90
2022-09-30T07:51:37.625Z,5.63
2022-09-30T07:54:06.977Z,5.40
2022-09-30T07:57:04.963Z,5.77
2022-09-30T07:59:27.161Z,5.57
2022-09-30T08:01:55.456Z,5.97
2022-09-30T08:04:26.252Z,5.87
2022-09-30T08:06:55.794Z,6.20
2022-09-30T08:09:24.850Z,6.27
2022-09-30T08:11:53.388Z,6.87
2022-09-30T08:14:22.384Z,6.43
2022-09-30T08:16:51.280Z,6.57
2022-09-30T08:19:20.288Z,6.70
2022-09-30T08:21:50.079Z,6.97
2022-09-30T08:24:18.344Z,7.37
2022-09-30T08:26:46.643Z,7.00
2022-09-30T08:29:20.766Z,8.13
2022-09-30T08:31:58.428Z,7.73
2022-09-30T08:34:26.716Z,8.00
2022-09-30T08:36:59.552Z,8.30
2022-09-30T08:39:27.996Z,7.80
2022-09-30T08:42:04.982Z,8.07
2022-09-30T08:44:44.049Z,8.60
2022-09-30T08:47:31.126Z,8.50
2022-09-30T08:50:03.915Z,9.03
2022-09-30T08:52:48.484Z,7.73
2022-09-30T08:55:20.515Z,8.83
2022-09-30T08:57:49.181Z,8.67
2022-09-30T09:00:18.500Z,9.10
2022-09-30T09:02:48.954Z,9.23
2022-09-30T09:05:19.473Z,9.53
2022-09-30T09:07:52.217Z,9.17
2022-09-30T09:10:26.092Z,8.20
2022-09-30T09:12:57.688Z,8.30
2022-09-30T09:15:30.876Z,7.47
2022-09-30T09:18:23.664Z,8.93
2022-09-30T09:20:55.423Z,7.77
2022-09-30T09:23:25.846Z,7.43
2022-09-30T09:25:55.717Z,7.80
2022-09-30T09:28:36.931Z,6.90
2022-09-30T09:31:05.838Z,7.33
2022-09-30T09:33:37.002Z,7.00
2022-09-30T09:36:09.414Z,7.30
2022-09-30T09:38:42.309Z,7.73
2022-09-30T09:41:16.687Z,7.87
2022-09-30T09:43:50.558Z,6.77
2022-09-30T09:46:22.685Z,7.07
2022-09-30T09:48:51.118Z,7.47
2022-09-30T09:51:23.501Z,7.70
2022-09-30T09:53:53.796Z,6.77
2022-09-30T09:56:22.945Z,7.90
2022-09-30T09:59:10.795Z,8.23
2022-09-30T10:01:40.300Z,8.40
2022-09-30T10:04:10.970Z,8.47
2022-09-30T10:06:50.040Z,8.13
2022-09-30T10:09:32.981Z,7.23
2022-09-30T10:12:15.988Z,7.50
2022-09-30T10:14:49.877Z,7.93
2022-09-30T10:17:21.019Z,7.73
2022-09-30T10:19:52.341Z,6.47
2022-09-30T10:22:21.328Z,6.83
2022-09-30T10:24:50.958Z,6.23
2022-09-30T10:27:29.168Z,6.40
2022-09-30T10:29:57.314Z,6.30
2022-09-30T10:32:25.964Z,7.20
2022-09-30T10:34:56.914Z,6.13
2022-09-30T10:37:26.095Z,5.97
2022-09-30T10:39:57.897Z,5.73
2022-09-30T10:42:27.255Z,5.83
2022-09-30T10:44:57.152Z,6.07
2022-09-30T10:47:26.966Z,5.83
2022-09-30T10:49:57.212Z,5.97
2022-09-30T10:52:27.540Z,5.33
2022-09-30T10:54:57.936Z,5.50
2022-09-30T10:57:27.401Z,6.37
2022-09-30T10:59:57.537Z,7.20
2022-09-30T11:02:28.199Z,6.00
2022-09-30T11:05:00.455Z,6.77
2022-09-30T11:07:30.723Z,7.10
2022-09-30T11:10:04.201Z,6.43
2022-09-30T11:12:39.065Z,5.13
2022-09-30T11:15:10.181Z,5.90
2022-09-30T11:17:41.856Z,5.43
2022-09-30T11:20:16.668Z,6.80
2022-09-30T11:22:47.452Z,6.43
2022-09-30T11:25:19.767Z,5.13
2022-09-30T11:27:59.692Z,5.07
2022-09-30T11:30:32.931Z,4.70
2022-09-30T11:33:12.519Z,4.70
2022-09-30T11:35:45.816Z,4.40
2022-09-30T11:38:21.964Z,4.67
2022-09-30T11:40:56.562Z,4.83
2022-09-30T11:43:30.134Z,4.60
2022-09-30T11:46:10.170Z,4.67
2022-09-30T11:48:43.873Z,4.30
2022-09-30T11:51:18.376Z,3.60
2022-09-30T11:53:49.992Z,3.73
2022-09-30T11:56:26.094Z,4.00
2022-09-30T11:58:56.372Z,4.57
2022-09-30T12:01:29.942Z,3.80
2022-09-30T12:04:02.808Z,4.03
2022-09-30T12:06:33.832Z,3.80
2022-09-30T12:09:04.661Z,4.00
2022-09-30T12:11:37.823Z,3.80
2022-09-30T12:14:09.416Z,3.57
2022-09-30T12:16:39.577Z,2.87
2022-09-30T12:19:15.446Z,2.97
2022-09-30T12:21:47.489Z,3.30
2022-09-30T12:24:18.476Z,2.63
2022-09-30T12:26:53.948Z,3.63
2022-09-30T12:29:42.533Z,3.50
2022-09-30T12:32:28.416Z,3.10
2022-09-30T12:35:02.893Z,3.33
2022-09-30T12:37:47.080Z,3.70
2022-09-30T12:40:25.357Z,3.17
2022-09-30T12:43:01.529Z,3.20
2022-09-30T12:45:47.149Z,3.90
2022-09-30T12:48:17.751Z,3.13
2022-09-30T12:50:48.875Z,2.60
2022-09-30T12:53:19.220Z,2.77
2022-09-30T12:55:47.770Z,2.30
2022-09-30T12:58:22.286Z,2.03
2022-09-30T13:01:08.420Z,2.60
2022-09-30T13:03:45.978Z,2.03
2022-09-30T13:06:16.004Z,2.13
2022-09-30T13:08:45.848Z,2.30
2022-09-30T13:11:31.160Z,1.90
2022-09-30T13:14:04.133Z,2.00
2022-09-30T13:16:54.831Z,1.90
2022-09-30T13:19:23.017Z,1.60
2022-09-30T13:21:52.162Z,1.70
2022-09-30T13:24:20.477Z,1.60
2022-09-30T13:26:51.936Z,3.37
2022-09-30T13:29:38.105Z,2.67
2022-09-30T13:32:10.232Z,3.30
2022-09-30T13:34:58.142Z,2.10
2022-09-30T13:37:33.779Z,2.00
2022-09-30T13:40:02.400Z,2.10
2022-09-30T13:42:32.640Z,2.30
2022-09-30T13:45:04.476Z,1.70
2022-09-30T13:47:35.279Z,1.87
2022-09-30T13:50:07.929Z,2.00
2022-09-30T13:52:38.656Z,2.00
2022-09-30T13:55:10.528Z,1.80
2022-09-30T13:57:45.220Z,1.73
2022-09-30T14:00:16.347Z,1.70
2022-09-30T14:02:48.307Z,2.17
2022-09-30T14:05:37.229Z,2.00
2022-09-30T14:08:13.285Z,1.93
2022-09-30T14:10:49.388Z,1.90
2022-09-30T14:13:24.566Z,2.13
2022-09-30T14:16:18.374Z,2.00
2022-09-30T14:19:05.579Z,2.10
2022-09-30T14:21:36.245Z,2.10
2022-09-30T14:24:06.045Z,2.03
2022-09-30T14:26:43.960Z,1.70
2022-09-30T14:29:14.323Z,1.50
2022-09-30T14:31:46.284Z,1.53
2022-09-30T14:34:15.475Z,1.60
2022-09-30T14:36:43.927Z,1.43
2022-09-30T14:39:15.680Z,1.40
2022-09-30T14:41:48.596Z,1.50
2022-09-30T14:44:19.744Z,1.30
2022-09-30T14:46:49.956Z,1.30
2022-09-30T14:49:19.436Z,1.40
2022-09-30T14:51:48.618Z,1.27
2022-09-30T14:54:20.960Z,1.20
2022-09-30T14:56:49.577Z,1.23
2022-09-30T14:59:19.350Z,1.10
2022-09-30T15:01:50.034Z,1.43
2022-09-30T15:04:18.971Z,1.20
2022-09-30T15:06:49.219Z,1.00
2022-09-30T15:09:18.499Z,1.10
2022-09-30T15:11:48.120Z,1.30
2022-09-30T15:14:18.752Z,1.20
2022-09-30T15:16:49.376Z,0.90
2022-09-30T15:19:21.035Z,1.00
2022-09-30T15:21:49.925Z,1.20
2022-09-30T15:24:19.033Z,0.80
2022-09-30T15:26:48.985Z,0.90
2022-09-30T15:29:18.281Z,0.83
2022-09-30T15:31:47.504Z,0.90
2022-09-30T15:34:21.746Z,0.70
2022-09-30T15:36:58.451Z,0.90
2022-09-30T15:39:48.406Z,0.60
2022-09-30T15:42:21.806Z,0.50
2022-09-30T15:44:49.968Z,0.87
2022-09-30T15:47:19.016Z,1.00
2022-09-30T15:49:50.014Z,1.10
2022-09-30T15:52:36.362Z,0.77
2022-09-30T15:55:29.346Z,1.17
2022-09-30T15:57:57.624Z,0.90
2022-09-30T16:00:45.271Z,1.20
2022-09-30T16:03:26.675Z,1.10
2022-09-30T16:05:56.615Z,1.03
2022-09-30T16:08:26.109Z,0.97
2022-09-30T16:10:55.778Z,1.20
2022-09-30T16:13:25.520Z,0.93
2022-09-30T16:15:54.396Z,0.90
2022-09-30T16:18:24.648Z,0.80
2022-09-30T16:21:00.875Z,0.87
2022-09-30T16:23:30.065Z,1.10
2022-09-30T16:26:14.656Z,1.00
2022-09-30T16:28:42.949Z,1.00
2022-09-30T16:31:11.712Z,0.93
2022-09-30T16:33:43.816Z,1.17
2022-09-30T16:36:14.657Z,1.30
2022-09-30T16:38:43.248Z,1.40
2022-09-30T16:41:13.324Z,1.40
2022-09-30T16:43:43.732Z,1.60
2022-09-30T16:46:12.844Z,1.60
2022-09-30T16:48:41.039Z,1.67
2022-09-30T16:51:15.738Z,1.47
2022-09-30T16:53:47.780Z,1.70
2022-09-30T16:56:16.812Z,1.60
2022-09-30T16:58:45.088Z,1.43
2022-09-30T17:01:18.328Z,1.40
2022-09-30T17:03:46.504Z,1.40
2022-09-30T17:06:14.764Z,1.20
2022-09-30T17:08:43.299Z,1.50
2022-09-30T17:11:12.827Z,1.30
2022-09-30T17:13:40.973Z,1.53
2022-09-30T17:16:09.151Z,1.33
2022-09-30T17:18:37.386Z,1.43
2022-09-30T17:21:05.789Z,1.37
2022-09-30T17:23:34.011Z,1.30
2022-09-30T17:26:05.284Z,1.60
2022-09-30T17:28:35.028Z,1.50
2022-09-30T17:31:03.195Z,1.47
2022-09-30T17:33:32.001Z,1.27
2022-09-30T17:36:00.610Z,1.27
2022-09-30T17:38:28.858Z,1.37
2022-09-30T17:41:15.193Z,1.43
2022-09-30T17:43:45.440Z,1.40
2022-09-30T17:46:15.101Z,1.57
2022-09-30T17:48:43.561Z,1.50
2022-09-30T17:51:11.704Z,1.40
2022-09-30T17:53:39.932Z,1.40
2022-09-30T17:56:12.693Z,1.40
2022-09-30T17:58:41.037Z,1.50
2022-09-30T18:01:11.177Z,1.30
2022-09-30T18:03:39.335Z,1.37
2022-09-30T18:06:08.139Z,1.80
2022-09-30T18:08:36.502Z,1.77
2022-09-30T18:11:04.697Z,1.63
2022-09-30T18:13:33.052Z,2.00
2022-09-30T18:16:02.106Z,1.77
2022-09-30T18:18:31.845Z,1.70
2022-09-30T18:21:00.102Z,2.20
2022-09-30T18:23:28.252Z,2.20
2022-09-30T18:25:57.915Z,1.80
2022-09-30T18:28:26.569Z,1.80
2022-09-30T18:30:54.756Z,2.30
2022-09-30T18:33:22.968Z,1.70
2022-09-30T18:35:52.544Z,1.97
2022-09-30T18:38:20.741Z,1.97
2022-09-30T18:40:49.903Z,1.77
2022-09-30T18:43:18.061Z,1.80
2022-09-30T18:45:53.678Z,1.73
2022-09-30T18:48:21.856Z,1.53
2022-09-30T18:50:51.572Z,1.90
2022-09-30T18:53:21.757Z,2.07
2022-09-30T18:55:50.136Z,1.87
2022-09-30T18:58:18.298Z,2.00
2022-09-30T19:00:46.743Z,2.20
2022-09-30T19:03:16.219Z,2.00
2022-09-30T19:05:44.664Z,2.00
2022-09-30T19:08:13.583Z,1.70
2022-09-30T19:10:43.655Z,1.80
2022-09-30T19:13:11.798Z,1.87
2022-09-30T19:15:40.282Z,2.13
2022-09-30T19:18:10.485Z,2.17
2022-09-30T19:20:39.104Z,2.00
2022-09-30T19:23:10.607Z,2.17
2022-09-30T19:25:39.797Z,2.37
2022-09-30T19:28:09.338Z,2.20
2022-09-30T19:30:39.653Z,2.13
2022-09-30T19:33:07.767Z,2.20
2022-09-30T19:35:40.718Z,2.07
2022-09-30T19:38:09.247Z,2.00
2022-09-30T19:40:37.812Z,1.90
2022-09-30T19:43:08.073Z,2.10
2022-09-30T19:45:37.732Z,1.90
2022-09-30T19:48:06.020Z,2.03
2022-09-30T19:50:34.634Z,2.07
2022-09-30T19:53:02.891Z,1.97
2022-09-30T19:55:37.432Z,2.17
2022-09-30T19:58:08.006Z,2.20
2022-09-30T20:00:37.709Z,2.00
2022-09-30T20:03:05.913Z,2.23
2022-09-30T20:05:34.328Z,2.27
2022-09-30T20:08:02.665Z,1.83
2022-09-30T20:10:30.840Z,2.40
2022-09-30T20:12:59.560Z,2.17
2022-09-30T20:15:46.385Z,2.20
2022-09-30T20:18:16.003Z,2.27
2022-09-30T20:20:45.564Z,2.23
2022-09-30T20:23:13.867Z,2.30
2022-09-30T20:25:42.091Z,2.80
2022-09-30T20:28:10.703Z,2.30
2022-09-30T20:30:45.356Z,3.23
2022-09-30T20:33:19.299Z,3.47
2022-09-30T20:35:47.980Z,3.70
2022-09-30T20:38:17.197Z,3.30
2022-09-30T20:40:45.869Z,3.50
2022-09-30T20:43:14.249Z,3.67
2022-09-30T20:45:42.567Z,3.80
2022-09-30T20:48:10.734Z,4.30
2022-09-30T20:50:45.133Z,4.27
2022-09-30T20:53:14.598Z,4.20
2022-09-30T20:55:44.331Z,4.40
2022-09-30T20:58:13.336Z,4.17
2022-09-30T21:00:42.219Z,4.10
2022-09-30T21:03:11.494Z,4.00
2022-09-30T21:05:39.956Z,3.83
2022-09-30T21:08:09.447Z,3.63
2022-09-30T21:10:38.696Z,4.43
2022-09-30T21:13:11.236Z,4.20
2022-09-30T21:15:39.506Z,4.17
2022-09-30T21:18:07.843Z,3.70
2022-09-30T21:20:36.341Z,3.63
2022-09-30T21:23:04.489Z,4.00
2022-09-30T21:25:34.235Z,3.53
2022-09-30T21:28:03.374Z,4.03
2022-09-30T21:30:31.795Z,4.03
2022-09-30T21:32:59.925Z,3.63
2022-09-30T21:35:28.065Z,4.07
2022-09-30T21:37:56.212Z,3.80
2022-09-30T21:40:24.332Z,4.17
2022-09-30T21:42:53.809Z,4.23
2022-09-30T21:45:21.935Z,3.90
2022-09-30T21:47:50.050Z,4.37
2022-09-30T21:50:18.306Z,4.50
2022-09-30T21:52:47.394Z,4.10
2022-09-30T21:55:15.673Z,3.70
2022-09-30T21:57:45.898Z,3.90
2022-09-30T22:00:16.203Z,4.10
2022-09-30T22:02:44.796Z,4.20
2022-09-30T22:05:12.938Z,3.63
2022-09-30T22:07:42.085Z,3.73
2022-09-30T22:10:10.640Z,4.50
2022-09-30T22:12:39.073Z,4.50
2022-09-30T22:15:07.844Z,3.90
2022-09-30T22:17:37.336Z,3.97
2022-09-30T22:20:05.806Z,4.43
2022-09-30T22:22:35.253Z,4.63
2022-09-30T22:25:03.469Z,4.37
2022-09-30T22:27:32.637Z,3.97
2022-09-30T22:30:00.802Z,3.70
2022-09-30T22:32:28.964Z,4.07
2022-09-30T22:35:16.265Z,3.27
2022-09-30T22:38:01.353Z,3.73
2022-09-30T22:40:29.527Z,3.97
2022-09-30T22:42:57.772Z,4.07
2022-09-30T22:45:26.057Z,3.80
2022-09-30T22:47:55.243Z,3.60
2022-09-30T22:50:25.967Z,3.67
2022-09-30T22:52:54.088Z,3.83
2022-09-30T22:55:22.389Z,3.23
2022-09-30T22:57:50.576Z,3.93
2022-09-30T23:00:18.752Z,3.73
2022-09-30T23:02:46.922Z,3.60
2022-09-30T23:05:15.257Z,3.60
2022-09-30T23:07:44.787Z,3.70
2022-09-30T23:10:12.915Z,3.70
2022-09-30T23:12:41.092Z,3.27
2022-09-30T23:15:09.501Z,3.13
2022-09-30T23:17:37.636Z,3.47
2022-09-30T23:20:06.276Z,3.43
2022-09-30T23:22:34.449Z,3.33
2022-09-30T23:25:03.968Z,3.00
2022-09-30T23:27:32.094Z,3.07
2022-09-30T23:30:00.237Z,3.50
2022-09-30T23:32:28.370Z,3.57
2022-09-30T23:34:56.485Z,4.17
2022-09-30T23:37:24.647Z,3.50
2022-09-30T23:39:52.771Z,3.43
2022-09-30T23:42:22.255Z,4.00
2022-09-30T23:44:50.425Z,4.20
2022-09-30T23:47:18.555Z,3.43
2022-09-30T23:49:46.689Z,3.70
2022-09-30T23:52:14.958Z,3.77
2022-09-30T23:54:43.307Z,4.40
2022-09-30T23:57:11.532Z,3.83
2022-09-30T23:59:41.033Z,4.17
